sensor_id;sensor_type;location;lat;lon;timestamp;pressure;altitude;pressure_sealevel;temperature;humidity
40940;BME280;26666;50.156;7.700;2022-11-14T00:04:45;100513.47;;;4.60;100.00
40940;BME280;26666;50.156;7.700;2022-11-14T00:09:47;100514.38;;;4.29;100.00
40940;BME280;26666;50.156;7.700;2022-11-14T00:14:49;100516.03;;;4.30;100.00
40940;BME280;26666;50.156;7.700;2022-11-14T00:19:50;100498.25;;;4.37;100.00
40940;BME280;26666;50.156;7.700;2022-11-14T00:24:52;100505.78;;;4.27;100.00
40940;BME280;26666;50.156;7.700;2022-11-14T00:29:53;100488.69;;;4.35;100.00
40940;BME280;26666;50.156;7.700;2022-11-14T00:34:55;100488.13;;;4.30;100.00
40940;BME280;26666;50.156;7.700;2022-11-14T00:39:56;100481.78;;;4.34;100.00
40940;BME280;26666;50.156;7.700;2022-11-14T00:44:57;100489.22;;;4.42;100.00
40940;BME280;26666;50.156;7.700;2022-11-14T00:49:59;100485.72;;;4.11;100.00
40940;BME280;26666;50.156;7.700;2022-11-14T00:55:00;100484.78;;;4.12;100.00
40940;BME280;26666;50.156;7.700;2022-11-14T01:00:03;100470.38;;;4.35;100.00
40940;BME280;26666;50.156;7.700;2022-11-14T01:05:05;100466.56;;;4.41;100.00
40940;BME280;26666;50.156;7.700;2022-11-14T01:10:07;100450.56;;;4.31;100.00
40940;BME280;26666;50.156;7.700;2022-11-14T01:15:09;100451.06;;;4.08;100.00
40940;BME280;26666;50.156;7.700;2022-11-14T01:20:10;100446.56;;;4.10;100.00
40940;BME280;26666;50.156;7.700;2022-11-14T01:25:12;100449.28;;;4.08;100.00
40940;BME280;26666;50.156;7.700;2022-11-14T01:30:13;100443.16;;;3.93;100.00
40940;BME280;26666;50.156;7.700;2022-11-14T01:35:15;100433.88;;;4.34;100.00
40940;BME280;26666;50.156;7.700;2022-11-14T01:40:19;100435.94;;;4.13;100.00
40940;BME280;26666;50.156;7.700;2022-11-14T01:45:56;100430.75;;;4.27;100.00
40940;BME280;26666;50.156;7.700;2022-11-14T01:56:15;100406.53;;;4.24;100.00
40940;BME280;26666;50.156;7.700;2022-11-14T02:01:17;100396.56;;;4.00;100.00
40940;BME280;26666;50.156;7.700;2022-11-14T02:06:20;100390.91;;;4.08;100.00
40940;BME280;26666;50.156;7.700;2022-11-14T02:11:22;100383.91;;;3.78;100.00
40940;BME280;26666;50.156;7.700;2022-11-14T02:16:25;100390.59;;;3.68;100.00
40940;BME280;26666;50.156;7.700;2022-11-14T02:21:27;100387.63;;;3.74;100.00
40940;BME280;26666;50.156;7.700;2022-11-14T02:26:28;100379.97;;;4.01;100.00
40940;BME280;26666;50.156;7.700;2022-11-14T02:31:37;100378.94;;;4.04;100.00
40940;BME280;26666;50.156;7.700;2022-11-14T02:36:38;100362.84;;;4.26;100.00
40940;BME280;26666;50.156;7.700;2022-11-14T02:41:40;100367.50;;;3.90;100.00
40940;BME280;26666;50.156;7.700;2022-11-14T02:46:41;100367.25;;;3.95;100.00
40940;BME280;26666;50.156;7.700;2022-11-14T02:51:43;100360.91;;;3.99;100.00
40940;BME280;26666;50.156;7.700;2022-11-14T02:56:44;100357.31;;;3.86;100.00
40940;BME280;26666;50.156;7.700;2022-11-14T03:01:45;100357.13;;;4.05;100.00
40940;BME280;26666;50.156;7.700;2022-11-14T03:06:47;100356.13;;;3.91;100.00
40940;BME280;26666;50.156;7.700;2022-11-14T03:11:49;100346.91;;;4.00;100.00
40940;BME280;26666;50.156;7.700;2022-11-14T03:16:50;100335.25;;;4.20;100.00
40940;BME280;26666;50.156;7.700;2022-11-14T03:21:54;100329.03;;;4.37;100.00
40940;BME280;26666;50.156;7.700;2022-11-14T03:26:56;100327.44;;;4.49;100.00
40940;BME280;26666;50.156;7.700;2022-11-14T03:31:57;100330.34;;;4.44;100.00
40940;BME280;26666;50.156;7.700;2022-11-14T03:36:59;100323.72;;;4.53;100.00
40940;BME280;26666;50.156;7.700;2022-11-14T03:42:00;100328.50;;;4.46;100.00
40940;BME280;26666;50.156;7.700;2022-11-14T03:47:02;100326.06;;;4.58;100.00
40940;BME280;26666;50.156;7.700;2022-11-14T03:52:03;100311.28;;;4.85;100.00
40940;BME280;26666;50.156;7.700;2022-11-14T03:57:05;100309.88;;;5.21;100.00
40940;BME280;26666;50.156;7.700;2022-11-14T04:02:06;100303.59;;;4.97;100.00
40940;BME280;26666;50.156;7.700;2022-11-14T04:07:08;100312.09;;;5.00;100.00
40940;BME280;26666;50.156;7.700;2022-11-14T04:12:10;100315.91;;;5.09;100.00
40940;BME280;26666;50.156;7.700;2022-11-14T04:17:16;100317.00;;;5.19;100.00
40940;BME280;26666;50.156;7.700;2022-11-14T04:22:17;100314.25;;;5.08;100.00
40940;BME280;26666;50.156;7.700;2022-11-14T04:27:19;100295.78;;;5.09;100.00
40940;BME280;26666;50.156;7.700;2022-11-14T04:32:20;100285.31;;;5.09;100.00
40940;BME280;26666;50.156;7.700;2022-11-14T04:37:22;100279.78;;;5.41;100.00
40940;BME280;26666;50.156;7.700;2022-11-14T04:42:24;100286.84;;;5.26;100.00
40940;BME280;26666;50.156;7.700;2022-11-14T04:47:25;100282.91;;;5.33;100.00
40940;BME280;26666;50.156;7.700;2022-11-14T04:52:27;100287.56;;;5.56;100.00
40940;BME280;26666;50.156;7.700;2022-11-14T04:57:28;100290.75;;;5.73;100.00
40940;BME280;26666;50.156;7.700;2022-11-14T05:02:30;100291.38;;;5.64;100.00
40940;BME280;26666;50.156;7.700;2022-11-14T05:07:32;100275.75;;;5.76;100.00
40940;BME280;26666;50.156;7.700;2022-11-14T05:12:34;100269.19;;;5.83;100.00
40940;BME280;26666;50.156;7.700;2022-11-14T05:17:35;100266.28;;;6.00;100.00
40940;BME280;26666;50.156;7.700;2022-11-14T05:22:37;100261.03;;;6.00;100.00
40940;BME280;26666;50.156;7.700;2022-11-14T05:27:38;100259.47;;;6.10;100.00
40940;BME280;26666;50.156;7.700;2022-11-14T05:32:40;100264.25;;;5.91;100.00
40940;BME280;26666;50.156;7.700;2022-11-14T05:37:42;100267.66;;;6.06;100.00
40940;BME280;26666;50.156;7.700;2022-11-14T05:42:43;100278.69;;;6.11;100.00
40940;BME280;26666;50.156;7.700;2022-11-14T05:47:45;100271.34;;;6.29;100.00
40940;BME280;26666;50.156;7.700;2022-11-14T05:52:46;100274.06;;;6.40;100.00
40940;BME280;26666;50.156;7.700;2022-11-14T05:57:48;100269.72;;;6.65;100.00
40940;BME280;26666;50.156;7.700;2022-11-14T06:02:53;100263.72;;;6.63;100.00
40940;BME280;26666;50.156;7.700;2022-11-14T06:07:55;100269.41;;;6.69;100.00
40940;BME280;26666;50.156;7.700;2022-11-14T06:12:57;100265.59;;;6.74;100.00
40940;BME280;26666;50.156;7.700;2022-11-14T06:18:02;100271.91;;;6.71;100.00
40940;BME280;26666;50.156;7.700;2022-11-14T06:23:03;100265.34;;;6.89;100.00
40940;BME280;26666;50.156;7.700;2022-11-14T06:28:05;100266.69;;;6.95;100.00
40940;BME280;26666;50.156;7.700;2022-11-14T06:33:06;100254.06;;;7.00;100.00
40940;BME280;26666;50.156;7.700;2022-11-14T06:38:08;100243.44;;;7.02;100.00
40940;BME280;26666;50.156;7.700;2022-11-14T06:43:09;100244.16;;;7.04;100.00
40940;BME280;26666;50.156;7.700;2022-11-14T06:48:11;100260.78;;;7.04;100.00
40940;BME280;26666;50.156;7.700;2022-11-14T06:53:12;100258.66;;;7.09;100.00
40940;BME280;26666;50.156;7.700;2022-11-14T06:58:14;100258.34;;;7.14;100.00
40940;BME280;26666;50.156;7.700;2022-11-14T07:03:15;100265.97;;;7.17;100.00
40940;BME280;26666;50.156;7.700;2022-11-14T07:08:17;100256.19;;;7.19;100.00
40940;BME280;26666;50.156;7.700;2022-11-14T07:13:21;100258.06;;;7.30;100.00
40940;BME280;26666;50.156;7.700;2022-11-14T07:18:23;100246.69;;;7.29;100.00
40940;BME280;26666;50.156;7.700;2022-11-14T07:23:24;100242.75;;;7.35;100.00
40940;BME280;26666;50.156;7.700;2022-11-14T07:28:26;100247.66;;;7.28;100.00
40940;BME280;26666;50.156;7.700;2022-11-14T07:33:29;100246.56;;;7.31;100.00
40940;BME280;26666;50.156;7.700;2022-11-14T07:38:32;100234.66;;;7.38;100.00
40940;BME280;26666;50.156;7.700;2022-11-14T07:43:34;100248.38;;;7.30;100.00
40940;BME280;26666;50.156;7.700;2022-11-14T07:48:36;100237.28;;;7.38;100.00
40940;BME280;26666;50.156;7.700;2022-11-14T07:53:38;100241.72;;;7.38;100.00
40940;BME280;26666;50.156;7.700;2022-11-14T07:58:40;100242.44;;;7.40;100.00
40940;BME280;26666;50.156;7.700;2022-11-14T08:03:41;100243.63;;;7.47;100.00
40940;BME280;26666;50.156;7.700;2022-11-14T08:08:46;100243.88;;;7.44;100.00
40940;BME280;26666;50.156;7.700;2022-11-14T08:13:48;100249.03;;;7.45;100.00
40940;BME280;26666;50.156;7.700;2022-11-14T08:18:49;100244.97;;;7.53;100.00
40940;BME280;26666;50.156;7.700;2022-11-14T08:23:51;100236.31;;;7.63;100.00
40940;BME280;26666;50.156;7.700;2022-11-14T08:28:53;100239.69;;;7.77;100.00
40940;BME280;26666;50.156;7.700;2022-11-14T08:33:54;100233.84;;;7.84;100.00
40940;BME280;26666;50.156;7.700;2022-11-14T08:38:56;100253.34;;;7.93;100.00
40940;BME280;26666;50.156;7.700;2022-11-14T08:44:02;100254.75;;;7.86;100.00
40940;BME280;26666;50.156;7.700;2022-11-14T08:49:03;100248.78;;;7.84;100.00
40940;BME280;26666;50.156;7.700;2022-11-14T08:54:05;100253.94;;;7.97;100.00
40940;BME280;26666;50.156;7.700;2022-11-14T08:59:07;100253.59;;;7.90;100.00
40940;BME280;26666;50.156;7.700;2022-11-14T09:04:08;100256.66;;;7.84;100.00
40940;BME280;26666;50.156;7.700;2022-11-14T09:09:10;100263.03;;;7.93;100.00
40940;BME280;26666;50.156;7.700;2022-11-14T09:14:12;100261.97;;;7.60;100.00
40940;BME280;26666;50.156;7.700;2022-11-14T09:19:13;100258.66;;;7.34;100.00
40940;BME280;26666;50.156;7.700;2022-11-14T09:24:15;100261.19;;;7.70;100.00
40940;BME280;26666;50.156;7.700;2022-11-14T09:29:16;100265.22;;;7.28;100.00
40940;BME280;26666;50.156;7.700;2022-11-14T09:34:18;100266.94;;;7.16;100.00
40940;BME280;26666;50.156;7.700;2022-11-14T09:39:19;100260.94;;;7.38;100.00
40940;BME280;26666;50.156;7.700;2022-11-14T09:44:30;100273.97;;;7.40;100.00
40940;BME280;26666;50.156;7.700;2022-11-14T09:49:44;100271.81;;;7.34;100.00
40940;BME280;26666;50.156;7.700;2022-11-14T09:54:58;100285.03;;;7.56;100.00
40940;BME280;26666;50.156;7.700;2022-11-14T10:00:02;100270.16;;;7.44;100.00
40940;BME280;26666;50.156;7.700;2022-11-14T10:10:54;100272.94;;;7.89;100.00
40940;BME280;26666;50.156;7.700;2022-11-14T10:16:23;100271.03;;;7.91;100.00
40940;BME280;26666;50.156;7.700;2022-11-14T10:27:03;100260.50;;;7.91;100.00
40940;BME280;26666;50.156;7.700;2022-11-14T10:37:27;100253.38;;;8.16;100.00
40940;BME280;26666;50.156;7.700;2022-11-14T10:42:34;100226.72;;;7.62;100.00
40940;BME280;26666;50.156;7.700;2022-11-14T10:47:39;100223.25;;;7.62;100.00
40940;BME280;26666;50.156;7.700;2022-11-14T10:52:44;100214.25;;;8.00;100.00
40940;BME280;26666;50.156;7.700;2022-11-14T10:57:46;100204.63;;;7.65;100.00
40940;BME280;26666;50.156;7.700;2022-11-14T11:02:53;100206.69;;;7.84;100.00
40940;BME280;26666;50.156;7.700;2022-11-14T11:07:58;100200.53;;;7.49;100.00
40940;BME280;26666;50.156;7.700;2022-11-14T11:13:33;100191.41;;;7.89;100.00
40940;BME280;26666;50.156;7.700;2022-11-14T11:18:36;100185.56;;;8.08;100.00
40940;BME280;26666;50.156;7.700;2022-11-14T11:24:07;100172.03;;;8.13;100.00
40940;BME280;26666;50.156;7.700;2022-11-14T11:34:10;100176.47;;;8.46;100.00
40940;BME280;26666;50.156;7.700;2022-11-14T11:39:28;100181.06;;;8.76;100.00
40940;BME280;26666;50.156;7.700;2022-11-14T11:44:49;100175.81;;;8.76;100.00
40940;BME280;26666;50.156;7.700;2022-11-14T11:49:54;100180.38;;;8.74;100.00
40940;BME280;26666;50.156;7.700;2022-11-14T12:00:20;100167.31;;;8.73;100.00
40940;BME280;26666;50.156;7.700;2022-11-14T12:05:28;100167.09;;;8.64;100.00
40940;BME280;26666;50.156;7.700;2022-11-14T12:10:38;100158.72;;;8.59;100.00
40940;BME280;26666;50.156;7.700;2022-11-14T12:26:37;100128.97;;;8.80;100.00
40940;BME280;26666;50.156;7.700;2022-11-14T12:31:42;100124.69;;;8.67;100.00
40940;BME280;26666;50.156;7.700;2022-11-14T12:36:44;100118.97;;;8.62;100.00
40940;BME280;26666;50.156;7.700;2022-11-14T12:41:45;100116.47;;;8.38;100.00
40940;BME280;26666;50.156;7.700;2022-11-14T13:08:14;100089.59;;;9.41;100.00
40940;BME280;26666;50.156;7.700;2022-11-14T13:13:18;100088.22;;;9.47;100.00
40940;BME280;26666;50.156;7.700;2022-11-14T13:18:23;100089.50;;;9.53;100.00
40940;BME280;26666;50.156;7.700;2022-11-14T13:28:47;100075.97;;;9.36;100.00
40940;BME280;26666;50.156;7.700;2022-11-14T13:33:54;100080.44;;;9.15;100.00
40940;BME280;26666;50.156;7.700;2022-11-14T13:49:57;100058.22;;;9.38;100.00
40940;BME280;26666;50.156;7.700;2022-11-14T13:55:01;100069.06;;;9.45;100.00
40940;BME280;26666;50.156;7.700;2022-11-14T14:00:12;100059.81;;;9.51;100.00
40940;BME280;26666;50.156;7.700;2022-11-14T14:16:04;100039.31;;;9.33;100.00
40940;BME280;26666;50.156;7.700;2022-11-14T14:21:17;100038.47;;;9.33;100.00
40940;BME280;26666;50.156;7.700;2022-11-14T14:31:40;100028.88;;;9.32;100.00
40940;BME280;26666;50.156;7.700;2022-11-14T14:36:49;100028.53;;;9.36;100.00
40940;BME280;26666;50.156;7.700;2022-11-14T14:41:56;100024.19;;;9.35;100.00
40940;BME280;26666;50.156;7.700;2022-11-14T14:47:13;100026.13;;;9.33;100.00
40940;BME280;26666;50.156;7.700;2022-11-14T14:52:20;100022.53;;;9.34;100.00
40940;BME280;26666;50.156;7.700;2022-11-14T14:57:22;100019.75;;;9.36;100.00
40940;BME280;26666;50.156;7.700;2022-11-14T15:02:24;100020.31;;;9.39;100.00
40940;BME280;26666;50.156;7.700;2022-11-14T15:07:27;100014.34;;;9.37;100.00
40940;BME280;26666;50.156;7.700;2022-11-14T15:12:30;100016.75;;;9.40;100.00
40940;BME280;26666;50.156;7.700;2022-11-14T15:17:32;100008.28;;;9.46;100.00
40940;BME280;26666;50.156;7.700;2022-11-14T15:22:36;100007.75;;;9.53;100.00
40940;BME280;26666;50.156;7.700;2022-11-14T15:28:16;99998.72;;;9.55;100.00
40940;BME280;26666;50.156;7.700;2022-11-14T15:33:32;100000.13;;;9.50;100.00
40940;BME280;26666;50.156;7.700;2022-11-14T15:38:34;100001.91;;;9.49;100.00
40940;BME280;26666;50.156;7.700;2022-11-14T15:43:46;99992.47;;;9.46;100.00
40940;BME280;26666;50.156;7.700;2022-11-14T15:54:23;99996.25;;;9.54;100.00
40940;BME280;26666;50.156;7.700;2022-11-14T15:59:26;99997.66;;;9.58;100.00
40940;BME280;26666;50.156;7.700;2022-11-14T16:04:31;100015.28;;;9.57;100.00
40940;BME280;26666;50.156;7.700;2022-11-14T16:09:33;100015.09;;;9.49;100.00
40940;BME280;26666;50.156;7.700;2022-11-14T16:14:35;100024.25;;;9.45;100.00
40940;BME280;26666;50.156;7.700;2022-11-14T16:19:36;100019.09;;;9.43;100.00
40940;BME280;26666;50.156;7.700;2022-11-14T16:24:38;100025.22;;;9.44;100.00
40940;BME280;26666;50.156;7.700;2022-11-14T16:29:39;100022.31;;;9.47;100.00
40940;BME280;26666;50.156;7.700;2022-11-14T16:34:41;100022.66;;;9.33;100.00
40940;BME280;26666;50.156;7.700;2022-11-14T16:39:42;100018.78;;;9.37;100.00
40940;BME280;26666;50.156;7.700;2022-11-14T16:44:44;100029.38;;;9.46;100.00
40940;BME280;26666;50.156;7.700;2022-11-14T16:49:51;100035.63;;;9.45;100.00
40940;BME280;26666;50.156;7.700;2022-11-14T16:54:52;100035.94;;;9.52;100.00
40940;BME280;26666;50.156;7.700;2022-11-14T16:59:54;100045.78;;;9.50;100.00
40940;BME280;26666;50.156;7.700;2022-11-14T17:04:55;100038.69;;;9.51;100.00
40940;BME280;26666;50.156;7.700;2022-11-14T17:09:57;100050.78;;;9.53;100.00
40940;BME280;26666;50.156;7.700;2022-11-14T17:14:58;100054.41;;;9.52;100.00
40940;BME280;26666;50.156;7.700;2022-11-14T17:20:00;100047.72;;;9.48;100.00
40940;BME280;26666;50.156;7.700;2022-11-14T17:25:01;100047.41;;;9.41;100.00
40940;BME280;26666;50.156;7.700;2022-11-14T17:30:03;100043.84;;;9.52;100.00
40940;BME280;26666;50.156;7.700;2022-11-14T17:35:05;100048.47;;;9.60;100.00
40940;BME280;26666;50.156;7.700;2022-11-14T17:40:08;100051.47;;;9.55;100.00
40940;BME280;26666;50.156;7.700;2022-11-14T17:45:15;100043.94;;;9.41;100.00
40940;BME280;26666;50.156;7.700;2022-11-14T17:50:17;100038.66;;;9.41;100.00
40940;BME280;26666;50.156;7.700;2022-11-14T17:55:18;100040.34;;;9.42;100.00
40940;BME280;26666;50.156;7.700;2022-11-14T18:00:20;100048.06;;;9.34;100.00
40940;BME280;26666;50.156;7.700;2022-11-14T18:05:22;100050.84;;;9.32;100.00
40940;BME280;26666;50.156;7.700;2022-11-14T18:10:23;100053.66;;;9.40;100.00
40940;BME280;26666;50.156;7.700;2022-11-14T18:15:25;100052.28;;;9.46;100.00
40940;BME280;26666;50.156;7.700;2022-11-14T18:20:28;100053.56;;;9.52;100.00
40940;BME280;26666;50.156;7.700;2022-11-14T18:25:30;100059.22;;;9.47;100.00
40940;BME280;26666;50.156;7.700;2022-11-14T18:30:31;100058.84;;;9.52;100.00
40940;BME280;26666;50.156;7.700;2022-11-14T18:35:41;100060.28;;;9.65;100.00
40940;BME280;26666;50.156;7.700;2022-11-14T18:40:43;100065.50;;;9.77;100.00
40940;BME280;26666;50.156;7.700;2022-11-14T18:45:45;100065.06;;;9.81;100.00
40940;BME280;26666;50.156;7.700;2022-11-14T18:50:46;100066.88;;;9.81;100.00
40940;BME280;26666;50.156;7.700;2022-11-14T18:55:48;100061.59;;;9.81;100.00
40940;BME280;26666;50.156;7.700;2022-11-14T19:00:49;100059.50;;;9.84;100.00
40940;BME280;26666;50.156;7.700;2022-11-14T19:05:51;100057.72;;;9.85;100.00
40940;BME280;26666;50.156;7.700;2022-11-14T19:10:52;100063.28;;;9.92;100.00
40940;BME280;26666;50.156;7.700;2022-11-14T19:15:54;100064.03;;;10.03;100.00
40940;BME280;26666;50.156;7.700;2022-11-14T19:21:00;100063.72;;;9.87;100.00
40940;BME280;26666;50.156;7.700;2022-11-14T19:26:02;100060.75;;;9.80;100.00
40940;BME280;26666;50.156;7.700;2022-11-14T19:31:04;100063.00;;;9.85;100.00
40940;BME280;26666;50.156;7.700;2022-11-14T19:36:09;100064.34;;;9.70;100.00
40940;BME280;26666;50.156;7.700;2022-11-14T19:41:17;100065.44;;;9.67;100.00
40940;BME280;26666;50.156;7.700;2022-11-14T19:46:19;100067.13;;;9.78;100.00
40940;BME280;26666;50.156;7.700;2022-11-14T19:51:20;100059.84;;;9.91;100.00
40940;BME280;26666;50.156;7.700;2022-11-14T19:56:23;100057.41;;;9.78;100.00
40940;BME280;26666;50.156;7.700;2022-11-14T20:01:26;100062.13;;;9.75;100.00
40940;BME280;26666;50.156;7.700;2022-11-14T20:06:30;100057.69;;;9.75;100.00
40940;BME280;26666;50.156;7.700;2022-11-14T20:11:32;100058.69;;;9.84;100.00
40940;BME280;26666;50.156;7.700;2022-11-14T20:16:35;100054.00;;;9.97;100.00
40940;BME280;26666;50.156;7.700;2022-11-14T20:21:37;100058.63;;;10.15;100.00
40940;BME280;26666;50.156;7.700;2022-11-14T20:26:38;100058.91;;;10.12;100.00
40940;BME280;26666;50.156;7.700;2022-11-14T20:31:41;100064.34;;;10.10;100.00
40940;BME280;26666;50.156;7.700;2022-11-14T20:36:42;100056.22;;;10.02;100.00
40940;BME280;26666;50.156;7.700;2022-11-14T20:42:04;100061.44;;;10.23;100.00
40940;BME280;26666;50.156;7.700;2022-11-14T20:47:06;100069.41;;;10.33;100.00
40940;BME280;26666;50.156;7.700;2022-11-14T20:52:11;100066.06;;;10.31;100.00
40940;BME280;26666;50.156;7.700;2022-11-14T20:57:13;100062.47;;;10.32;100.00
40940;BME280;26666;50.156;7.700;2022-11-14T21:02:14;100060.38;;;10.35;100.00
40940;BME280;26666;50.156;7.700;2022-11-14T21:07:16;100063.13;;;10.24;100.00
40940;BME280;26666;50.156;7.700;2022-11-14T21:12:17;100056.50;;;10.39;100.00
40940;BME280;26666;50.156;7.700;2022-11-14T21:17:19;100044.00;;;10.51;100.00
40940;BME280;26666;50.156;7.700;2022-11-14T21:22:20;100065.41;;;10.58;100.00
40940;BME280;26666;50.156;7.700;2022-11-14T21:27:22;100063.19;;;10.63;100.00
40940;BME280;26666;50.156;7.700;2022-11-14T21:32:23;100058.47;;;10.57;100.00
40940;BME280;26666;50.156;7.700;2022-11-14T21:37:25;100053.44;;;10.63;100.00
40940;BME280;26666;50.156;7.700;2022-11-14T21:42:26;100062.06;;;10.56;100.00
40940;BME280;26666;50.156;7.700;2022-11-14T21:47:28;100055.13;;;10.55;100.00
40940;BME280;26666;50.156;7.700;2022-11-14T21:52:31;100040.22;;;10.54;100.00
40940;BME280;26666;50.156;7.700;2022-11-14T21:57:32;100040.38;;;10.62;100.00
40940;BME280;26666;50.156;7.700;2022-11-14T22:02:34;100050.66;;;10.65;100.00
40940;BME280;26666;50.156;7.700;2022-11-14T22:07:39;100044.25;;;10.77;100.00
40940;BME280;26666;50.156;7.700;2022-11-14T22:12:40;100041.59;;;10.87;100.00
40940;BME280;26666;50.156;7.700;2022-11-14T22:17:42;100037.56;;;10.83;100.00
40940;BME280;26666;50.156;7.700;2022-11-14T22:22:43;100030.47;;;10.83;100.00
40940;BME280;26666;50.156;7.700;2022-11-14T22:27:45;100043.56;;;10.85;100.00
40940;BME280;26666;50.156;7.700;2022-11-14T22:32:46;100039.09;;;10.85;100.00
40940;BME280;26666;50.156;7.700;2022-11-14T22:37:48;100038.56;;;10.92;100.00
40940;BME280;26666;50.156;7.700;2022-11-14T22:42:49;100051.09;;;10.90;100.00
40940;BME280;26666;50.156;7.700;2022-11-14T22:47:55;100048.16;;;10.83;100.00
40940;BME280;26666;50.156;7.700;2022-11-14T22:52:57;100056.50;;;10.88;100.00
40940;BME280;26666;50.156;7.700;2022-11-14T22:57:59;100060.78;;;10.99;100.00
40940;BME280;26666;50.156;7.700;2022-11-14T23:03:00;100055.81;;;10.76;100.00
40940;BME280;26666;50.156;7.700;2022-11-14T23:08:05;100053.16;;;10.96;100.00
40940;BME280;26666;50.156;7.700;2022-11-14T23:13:07;100046.91;;;10.77;100.00
40940;BME280;26666;50.156;7.700;2022-11-14T23:18:09;100054.53;;;11.00;100.00
40940;BME280;26666;50.156;7.700;2022-11-14T23:23:10;100057.75;;;10.94;100.00
40940;BME280;26666;50.156;7.700;2022-11-14T23:28:12;100054.13;;;10.95;100.00
40940;BME280;26666;50.156;7.700;2022-11-14T23:33:13;100038.00;;;10.98;100.00
40940;BME280;26666;50.156;7.700;2022-11-14T23:38:15;100026.00;;;11.03;100.00
40940;BME280;26666;50.156;7.700;2022-11-14T23:43:16;100009.88;;;10.97;100.00
40940;BME280;26666;50.156;7.700;2022-11-14T23:48:19;100011.59;;;10.78;100.00
40940;BME280;26666;50.156;7.700;2022-11-14T23:53:21;100007.34;;;10.95;100.00
40940;BME280;26666;50.156;7.700;2022-11-14T23:58:25;100004.75;;;10.85;100.00
